Dades de l'estació automàtica Sant Martí Sarroca

?
?
Resum diari 22:30 TU
Dades diàries de l'estació meteorològica
Temperatura mitjana 19.8 °C
Temperatura màxima 27.6 °C 13:58 TU
Temperatura mínima 13.6 °C 5:32 TU
Humitat relativa mitjana 79%
Precipitació acumulada 0.0 mm
Ratxa màxima del vent (2 m) 24.8 km/h - 254º 14:45 TU
Irradiació solar global 19.1 MJ/m2

El tram horari està expressat en Temps Universal (TU). Cal sumar una hora en horari d'hivern i dues en horari d'estiu per passar a l'hora oficial.

Sant Martí Sarroca

Metadades estació meteorol´gica
Municipi Sant Martí Sarroca
Comarca Alt Penedès
Altitud 257 m
Data alta 24.05.1997
Estat actual Operativa
Dades de període
Període
TU
TM
°C
TX
°C
TN
°C
HRM
%
PPT
mm
VVM (2 m)
km/h
DVM (2 m)
graus
VVX (2 m)
km/h
RS
W/m2
00:00 - 00:30 15.5 15.8 15.2 95 0.0 3.2 2 6.8 0
00:30 - 01:00 15.7 15.7 15.6 95 0.0 3.2 22 7.9 0
01:00 - 01:30 15.9 16.1 15.7 94 0.0 2.9 360 6.5 0
01:30 - 02:00 16.0 16.2 15.8 93 0.0 2.9 350 7.9 0
02:00 - 02:30 15.6 15.8 15.4 94 0.0 3.2 358 6.5 0
02:30 - 03:00 15.1 15.4 14.9 94 0.0 2.2 353 7.6 0
03:00 - 03:30 14.8 15.1 14.6 94 0.0 3.2 357 8.6 0
03:30 - 04:00 14.4 14.6 14.3 94 0.0 2.9 0 7.2 0
04:00 - 04:30 14.2 14.3 14.1 93 0.0 3.2 15 7.9 0
04:30 - 05:00 14.1 14.3 14.0 93 0.0 2.2 8 7.6 0
05:00 - 05:30 13.8 14.0 13.6 94 0.0 3.2 6 9.0 0
05:30 - 06:00 13.7 13.8 13.6 93 0.0 2.9 7 8.3 4
06:00 - 06:30 14.1 14.7 13.8 91 0.0 3.2 359 7.6 51
06:30 - 07:00 15.6 16.3 14.8 86 0.0 4.0 10 7.9 132
07:00 - 07:30 17.2 18.2 16.3 82 0.0 4.3 353 9.7 224
07:30 - 08:00 19.2 20.0 18.3 75 0.0 3.6 355 8.3 319
08:00 - 08:30 20.7 21.4 20.1 73 0.0 2.9 50 5.8 412
08:30 - 09:00 21.5 22.2 21.0 72 0.0 2.9 133 7.2 495
09:00 - 09:30 22.2 22.7 21.9 68 0.0 3.2 151 7.9 572
09:30 - 10:00 23.1 23.7 22.7 65 0.0 3.2 192 11.2 635
10:00 - 10:30 23.8 24.2 23.3 64 0.0 4.3 204 12.2 688
10:30 - 11:00 24.7 25.0 24.1 66 0.0 4.3 204 15.8 722
11:00 - 11:30 25.1 25.7 24.8 62 0.0 5.0 215 16.6 753
11:30 - 12:00 26.0 26.5 25.5 53 0.0 6.1 220 19.8 762
12:00 - 12:30 26.4 26.7 26.3 49 0.0 7.2 234 21.6 757
12:30 - 13:00 26.6 27.0 26.3 51 0.0 7.2 238 23.8 735
13:00 - 13:30 26.8 27.0 26.6 53 0.0 6.8 235 16.6 706
13:30 - 14:00 27.0 27.6 26.5 56 0.0 4.3 207 16.6 684
14:00 - 14:30 26.6 27.3 25.8 54 0.0 4.7 211 15.5 505
14:30 - 15:00 26.0 26.6 25.7 57 0.0 6.8 224 24.8 513
15:00 - 15:30 24.8 26.1 23.9 62 0.0 6.5 236 17.3 307
15:30 - 16:00 24.1 24.7 23.7 64 0.0 8.6 245 24.1 299
16:00 - 16:30 23.7 24.0 23.3 67 0.0 8.6 247 22.3 220
16:30 - 17:00 23.0 23.5 22.4 73 0.0 6.8 244 15.8 135
17:00 - 17:30 22.4 22.7 21.9 76 0.0 3.2 236 9.0 55
17:30 - 18:00 21.3 21.9 20.9 82 0.0 3.6 264 9.0 2
18:00 - 18:30 20.5 21.0 20.0 83 0.0 2.2 282 7.6 0
18:30 - 19:00 19.5 20.2 18.8 87 0.0 1.8 78 4.3 0
19:00 - 19:30 18.5 18.8 18.1 89 0.0 1.1 232 7.2 0
19:30 - 20:00 18.1 18.5 17.9 90 0.0 2.2 291 5.0 0
20:00 - 20:30 17.8 18.2 17.5 91 0.0 1.8 310 4.7 0
20:30 - 21:00 17.4 18.1 16.5 92 0.0 1.8 6 4.0 0
21:00 - 21:30 17.0 18.2 16.5 93 0.0 1.8 316 5.0 0
21:30 - 22:00 17.4 17.6 17.2 91 0.0 1.4 43 4.3 0
22:00 - 22:30 17.5 17.8 17.3 91 0.0 1.1 266 4.3 0
22:30 - 23:00 18.1 19.4 17.4 85 0.0 2.5 319 7.9 0
23:00 - 23:30 (s/d) (s/d) (s/d) (s/d) (s/d) (s/d) (s/d) (s/d) (s/d)

Les dades en taronja només han passat un control de qualitat automàtic. Resta pendent la seva validació definitiva.